Time;durP1;ratioP1;P1;durP2;ratioP2;P2;SDS_P1;SDS_P2;PMS_P1;PMS_P2;Temp;Humidity;BMP_temperature;BMP_pressure;BME280_temperature;BME280_humidity;BME280_pressure;Samples;Min_cycle;Max_cycle;Signal;HPM_P1;HPM_P2
2022/01/22 00:00:54;;;;;;;14.48;8.95;;;4.50;99.40;;;;;;5057202;28;20045;-68
2022/01/22 00:03:22;;;;;;;12.43;7.95;;;4.50;99.40;;;;;;5058172;28;20040;-67
2022/01/22 00:05:48;;;;;;;15.88;8.30;;;4.50;99.50;;;;;;5057061;28;20065;-65
2022/01/22 00:08:15;;;;;;;15.07;8.35;;;4.40;99.60;;;;;;5056073;28;20478;-66
2022/01/22 00:10:44;;;;;;;14.18;9.02;;;4.40;99.50;;;;;;5058658;28;20396;-68
2022/01/22 00:15:43;;;;;;;13.82;8.10;;;4.30;99.80;;;;;;5062713;28;20510;-68
2022/01/22 00:18:10;;;;;;;19.20;9.48;;;4.30;99.90;;;;;;5064058;28;20082;-65
2022/01/22 00:20:37;;;;;;;18.70;8.13;;;4.30;99.80;;;;;;5065384;28;20068;-68
2022/01/22 00:23:04;;;;;;;15.57;8.00;;;4.20;99.90;;;;;;5064889;28;20052;-66
2022/01/22 00:25:32;;;;;;;17.23;8.18;;;4.30;99.90;;;;;;5064503;28;20072;-66
2022/01/22 00:28:00;;;;;;;15.02;8.73;;;4.20;99.90;;;;;;5064150;28;20091;-66
2022/01/22 00:30:28;;;;;;;18.58;8.48;;;4.10;99.90;;;;;;5065551;28;20060;-66
2022/01/22 00:32:54;;;;;;;17.27;8.48;;;4.10;99.90;;;;;;5065690;28;20044;-67
2022/01/22 00:35:22;;;;;;;11.82;7.45;;;4.00;99.90;;;;;;5065297;28;20076;-67
2022/01/22 00:37:49;;;;;;;17.13;7.18;;;4.00;99.90;;;;;;5065657;28;20526;-66
2022/01/22 00:40:17;;;;;;;14.27;6.97;;;4.00;99.90;;;;;;5067268;28;20045;-66
2022/01/22 00:42:44;;;;;;;14.15;7.88;;;3.90;99.90;;;;;;5067710;28;20486;-67
2022/01/22 00:45:11;;;;;;;16.17;7.80;;;3.90;99.90;;;;;;5067573;28;20048;-66
2022/01/22 00:47:38;;;;;;;12.25;7.68;;;3.90;99.90;;;;;;5066806;28;20190;-67
2022/01/22 00:50:06;;;;;;;17.15;7.97;;;3.80;99.90;;;;;;5065897;28;20052;-66
2022/01/22 00:52:32;;;;;;;16.50;8.35;;;3.80;99.90;;;;;;5066181;28;20079;-67
2022/01/22 00:54:59;;;;;;;12.93;7.60;;;3.80;99.90;;;;;;5065544;28;20045;-68
2022/01/22 00:57:26;;;;;;;17.13;8.55;;;3.80;99.90;;;;;;5065645;28;20079;-67
2022/01/22 00:59:54;;;;;;;14.10;7.20;;;3.70;99.90;;;;;;5065432;28;20450;-66
2022/01/22 01:02:21;;;;;;;12.27;7.95;;;3.70;99.90;;;;;;5065891;28;20084;-65
2022/01/22 01:04:48;;;;;;;12.07;8.05;;;3.70;99.90;;;;;;5065848;28;20055;-66
2022/01/22 01:07:14;;;;;;;11.35;7.63;;;3.70;99.90;;;;;;5066090;28;20450;-66
2022/01/22 01:09:41;;;;;;;13.93;8.15;;;3.60;99.90;;;;;;5056693;28;20053;-66
2022/01/22 01:12:11;;;;;;;13.32;8.15;;;3.60;99.90;;;;;;5062534;28;20154;-66
2022/01/22 01:14:45;;;;;;;15.25;7.70;;;3.70;99.90;;;;;;5067681;28;20411;-67
2022/01/22 01:17:35;;;;;;;;;;;3.70;99.90;;;;;;5066879;28;20076;-67
2022/01/22 01:34:22;;;;;;;14.73;7.93;;;3.50;99.90;;;;;;5064506;28;20093;-66
2022/01/22 01:36:39;;;;;;;15.77;7.65;;;3.40;99.90;;;;;;5076903;28;20495;-66
2022/01/22 01:39:09;;;;;;;14.90;8.05;;;3.30;99.90;;;;;;5067214;28;20404;-66
2022/01/22 01:44:16;;;;;;;16.80;8.82;;;3.30;99.90;;;;;;5067781;28;20056;-66
2022/01/22 01:47:03;;;;;;;12.13;7.38;;;3.30;99.90;;;;;;5067355;28;20044;-66
2022/01/22 01:49:30;;;;;;;14.93;7.82;;;3.30;99.90;;;;;;5059399;28;20411;-66
2022/01/22 01:52:01;;;;;;;16.63;7.57;;;3.30;99.90;;;;;;5067946;28;20044;-67
2022/01/22 01:55:00;;;;;;;14.45;7.60;;;3.30;99.90;;;;;;5068887;28;20072;-66
2022/01/22 02:00:00;;;;;;;14.23;7.10;;;3.40;99.90;;;;;;5056548;28;20087;-66
2022/01/22 02:02:30;;;;;;;13.57;6.95;;;3.40;99.90;;;;;;5071298;28;20084;-66
2022/01/22 02:04:57;;;;;;;14.00;7.22;;;3.30;99.90;;;;;;5071343;28;20562;-67
2022/01/22 02:07:23;;;;;;;14.00;7.07;;;3.20;99.90;;;;;;5072072;28;20044;-66
2022/01/22 02:09:50;;;;;;;12.38;7.70;;;3.10;99.90;;;;;;5072349;28;20083;-66
2022/01/22 02:25:57;;;;;;;9.23;6.70;;;2.90;99.90;;;;;;5075703;28;20098;-66
2022/01/22 02:28:23;;;;;;;13.70;7.43;;;3.00;99.90;;;;;;5075357;28;20076;-66
2022/01/22 02:30:56;;;;;;;8.70;6.25;;;3.00;99.90;;;;;;5074266;28;20075;-67
2022/01/22 02:35:55;;;;;;;13.40;6.82;;;3.10;99.90;;;;;;5074155;28;20041;-65
2022/01/22 02:38:40;;;;;;;15.77;6.68;;;3.00;99.90;;;;;;5074256;28;20080;-66
2022/01/22 02:41:13;;;;;;;11.95;7.20;;;3.00;99.90;;;;;;5065671;28;20074;-66
2022/01/22 02:43:39;;;;;;;12.38;6.53;;;2.90;99.90;;;;;;5074436;28;20296;-66
2022/01/22 02:46:06;;;;;;;13.30;6.22;;;3.00;99.90;;;;;;5074212;28;20583;-66
2022/01/22 02:48:33;;;;;;;12.55;5.95;;;3.00;99.90;;;;;;5073617;28;20052;-66
2022/01/22 02:51:00;;;;;;;10.90;6.22;;;3.00;99.90;;;;;;5074378;28;20049;-66
2022/01/22 02:53:27;;;;;;;9.63;6.45;;;2.90;99.90;;;;;;5072228;28;20189;-66
2022/01/22 02:55:54;;;;;;;12.27;6.93;;;3.00;99.90;;;;;;5074175;28;20076;-66
2022/01/22 02:58:21;;;;;;;9.75;6.03;;;3.00;99.90;;;;;;5070778;28;20044;-68
2022/01/22 03:00:48;;;;;;;11.13;6.68;;;3.00;99.90;;;;;;5070969;28;20044;-66
2022/01/22 03:03:15;;;;;;;10.90;6.28;;;3.00;99.90;;;;;;5070935;28;20136;-65
2022/01/22 03:05:42;;;;;;;15.90;6.80;;;2.90;99.90;;;;;;5069876;28;20048;-66
2022/01/22 03:08:10;;;;;;;17.08;7.10;;;2.90;99.90;;;;;;4699607;28;10000082;-66
2022/01/22 03:10:38;;;;;;;8.95;5.75;;;2.90;99.90;;;;;;5064438;28;20110;-66
2022/01/22 03:13:18;;;;;;;11.18;6.13;;;2.90;99.90;;;;;;5071416;28;20049;-65
2022/01/22 03:15:59;;;;;;;12.38;7.03;;;2.90;99.90;;;;;;5070952;28;20120;-66
2022/01/22 03:18:52;;;;;;;8.57;6.03;;;3.00;99.90;;;;;;5070775;28;20093;-65
2022/01/22 03:29:20;;;;;;;11.85;6.05;;;2.80;99.90;;;;;;5071492;28;20061;-66
2022/01/22 03:31:46;;;;;;;10.70;5.78;;;2.70;99.90;;;;;;5068938;28;20044;-65
2022/01/22 03:34:14;;;;;;;14.88;6.90;;;2.70;99.90;;;;;;5069219;28;20044;-66
2022/01/22 03:36:41;;;;;;;9.50;6.43;;;2.70;99.90;;;;;;5070041;28;20083;-65
2022/01/22 03:39:08;;;;;;;11.50;5.80;;;2.70;99.90;;;;;;5070303;28;20465;-64
2022/01/22 03:41:35;;;;;;;13.02;6.50;;;2.70;99.90;;;;;;5070350;28;20074;-67
2022/01/22 03:44:04;;;;;;;8.70;5.35;;;2.70;99.90;;;;;;5070509;28;20727;-65
2022/01/22 03:46:32;;;;;;;13.07;6.70;;;2.70;99.90;;;;;;5069046;28;20044;-65
2022/01/22 03:48:59;;;;;;;8.90;6.38;;;2.70;99.90;;;;;;5069640;28;20197;-66
2022/01/22 03:51:26;;;;;;;8.82;6.28;;;3.20;99.90;;;;;;5069903;28;20044;-66
2022/01/22 03:53:53;;;;;;;11.45;6.20;;;2.60;99.90;;;;;;5068521;28;20330;-66
2022/01/22 03:56:20;;;;;;;7.53;5.97;;;2.60;99.90;;;;;;5070181;28;20040;-65
2022/01/22 03:58:47;;;;;;;9.25;5.82;;;2.60;99.90;;;;;;5070709;28;20044;-65
2022/01/22 04:04:07;;;;;;;10.13;6.10;;;3.10;99.90;;;;;;5053098;28;20047;-65
2022/01/22 04:09:06;;;;;;;9.50;6.25;;;2.70;99.90;;;;;;5070288;28;20049;-66
2022/01/22 04:11:37;;;;;;;9.63;6.22;;;2.70;99.90;;;;;;5069710;28;20053;-66
2022/01/22 04:14:06;;;;;;;8.18;5.30;;;2.80;99.90;;;;;;5070055;28;20111;-66
2022/01/22 04:16:36;;;;;;;10.25;6.68;;;2.80;99.90;;;;;;5066056;28;20584;-66
2022/01/22 04:24:52;;;;;;;7.68;5.07;;;3.00;99.90;;;;;;5067774;28;20090;-65
2022/01/22 04:27:24;;;;;;;8.95;5.60;;;3.00;99.90;;;;;;5069155;28;20068;-65
2022/01/22 04:29:51;;;;;;;8.48;5.63;;;3.10;99.90;;;;;;5068248;28;20084;-65
2022/01/22 04:32:18;;;;;;;8.70;5.40;;;3.00;99.90;;;;;;5069433;28;20384;-66
2022/01/22 04:34:45;;;;;;;12.40;5.60;;;3.10;99.90;;;;;;5068986;28;20044;-65
2022/01/22 04:37:12;;;;;;;8.73;6.18;;;3.10;99.90;;;;;;5069749;28;20048;-66
2022/01/22 04:39:38;;;;;;;7.35;5.15;;;3.30;99.90;;;;;;5069907;28;20048;-66
2022/01/22 04:42:06;;;;;;;9.88;5.55;;;3.60;99.90;;;;;;5069520;28;20458;-68
2022/01/22 04:44:39;;;;;;;8.25;5.45;;;3.20;99.90;;;;;;5069805;28;20040;-65
2022/01/22 04:54:58;;;;;;;8.00;5.85;;;3.40;99.90;;;;;;5054930;28;20072;-66
2022/01/22 04:57:26;;;;;;;7.70;5.03;;;3.40;99.90;;;;;;5069244;28;20094;-66
2022/01/22 04:59:53;;;;;;;9.98;5.35;;;3.90;99.90;;;;;;5069822;28;20045;-66
2022/01/22 05:02:20;;;;;;;11.32;6.82;;;3.50;99.90;;;;;;5069331;28;20072;-66
2022/01/22 05:04:47;;;;;;;7.10;5.13;;;3.60;99.90;;;;;;5068395;28;20079;-66
2022/01/22 05:07:14;;;;;;;12.15;5.90;;;3.50;99.90;;;;;;5068414;28;20107;-66
2022/01/22 05:09:40;;;;;;;12.70;6.00;;;3.60;99.90;;;;;;5068260;28;20560;-66
2022/01/22 05:12:08;;;;;;;9.38;5.63;;;3.60;99.90;;;;;;5068686;28;20080;-66
2022/01/22 05:14:34;;;;;;;11.38;6.18;;;3.70;99.90;;;;;;5068518;28;20083;-65
2022/01/22 05:17:04;;;;;;;7.72;5.45;;;3.60;99.90;;;;;;5066772;28;20080;-66
2022/01/22 05:25:12;;;;;;;6.90;6.20;;;3.70;99.90;;;;;;5063029;28;20557;-66
2022/01/22 05:27:50;;;;;;;12.07;6.30;;;3.70;99.90;;;;;;5066879;28;20076;-65
2022/01/22 05:38:38;;;;;;;8.65;5.75;;;3.80;99.90;;;;;;5071566;28;20048;-66
2022/01/22 05:41:04;;;;;;;7.05;5.25;;;4.00;99.90;;;;;;5071102;28;20416;-65
2022/01/22 05:43:31;;;;;;;10.57;5.90;;;4.40;99.90;;;;;;5072431;28;20084;-66
2022/01/22 05:45:58;;;;;;;10.05;5.88;;;3.90;99.90;;;;;;5069810;28;20124;-66
2022/01/22 05:48:25;;;;;;;7.95;5.80;;;3.90;99.90;;;;;;5059985;28;20064;-66
2022/01/22 05:51:01;;;;;;;8.10;6.20;;;3.90;99.90;;;;;;5065774;28;20093;-66
2022/01/22 05:53:54;;;;;;;9.93;6.10;;;3.90;99.90;;;;;;5072090;28;20076;-66
2022/01/22 06:01:52;;;;;;;8.68;5.88;;;4.00;99.90;;;;;;5071893;28;20091;-66
2022/01/22 06:04:19;;;;;;;10.25;6.93;;;4.10;99.90;;;;;;5073263;28;20203;-66
2022/01/22 06:06:46;;;;;;;8.77;6.55;;;4.10;99.90;;;;;;5071729;28;20102;-67
2022/01/22 06:09:12;;;;;;;9.00;5.68;;;4.10;99.90;;;;;;5071585;28;20518;-67
2022/01/22 06:11:56;;;;;;;8.35;5.97;;;4.10;99.90;;;;;;5072085;28;20095;-69
2022/01/22 06:14:23;;;;;;;8.10;6.40;;;4.10;99.90;;;;;;5051622;28;20488;-65
2022/01/22 06:16:50;;;;;;;8.38;6.40;;;4.10;99.90;;;;;;5065543;28;20107;-65
2022/01/22 06:19:17;;;;;;;10.10;7.00;;;4.20;99.90;;;;;;5072437;28;20051;-66
2022/01/22 06:21:44;;;;;;;10.60;6.65;;;4.10;99.90;;;;;;5070488;28;20041;-66
2022/01/22 06:24:12;;;;;;;8.80;6.95;;;4.10;99.90;;;;;;5072347;28;20083;-67
2022/01/22 06:26:39;;;;;;;9.43;6.80;;;4.20;99.90;;;;;;5072326;28;20064;-66
2022/01/22 06:29:06;;;;;;;13.23;6.80;;;4.20;99.90;;;;;;5072990;28;20075;-66
2022/01/22 06:31:33;;;;;;;9.30;7.22;;;4.20;99.90;;;;;;5071566;28;20048;-66
2022/01/22 06:34:00;;;;;;;9.52;6.80;;;4.30;99.90;;;;;;5072210;28;20052;-64
2022/01/22 06:36:26;;;;;;;11.18;7.55;;;4.30;99.90;;;;;;5071287;28;20076;-65
2022/01/22 06:38:58;;;;;;;9.18;6.78;;;4.30;99.90;;;;;;5071748;28;20076;-66
2022/01/22 06:44:21;;;;;;;10.63;7.47;;;4.30;99.90;;;;;;5061283;28;20084;-67
2022/01/22 06:46:53;;;;;;;9.52;6.88;;;4.30;99.90;;;;;;5070890;28;20070;-66
2022/01/22 06:49:20;;;;;;;9.77;7.15;;;4.30;99.90;;;;;;5071151;28;20080;-66
2022/01/22 06:51:47;;;;;;;10.35;7.10;;;4.30;99.90;;;;;;5071877;28;20105;-66
2022/01/22 06:54:14;;;;;;;10.15;6.88;;;4.30;99.90;;;;;;5071013;28;20045;-66
2022/01/22 06:56:41;;;;;;;11.38;7.65;;;4.30;99.90;;;;;;5071804;28;20567;-66
2022/01/22 06:59:12;;;;;;;9.80;7.97;;;4.50;99.90;;;;;;5071035;28;20070;-66
2022/01/22 07:01:39;;;;;;;12.95;8.55;;;4.30;99.90;;;;;;5069862;28;20045;-65
2022/01/22 07:04:06;;;;;;;9.93;7.30;;;4.30;99.90;;;;;;5069394;28;20605;-66
2022/01/22 07:06:33;;;;;;;11.88;7.88;;;4.30;99.90;;;;;;5071286;28;20110;-66
2022/01/22 07:09:00;;;;;;;8.23;6.40;;;4.30;99.90;;;;;;5071207;28;20048;-66
2022/01/22 07:11:27;;;;;;;18.13;8.02;;;4.40;99.90;;;;;;5071733;28;20102;-64
2022/01/22 07:13:53;;;;;;;9.85;7.82;;;4.40;99.90;;;;;;5071030;28;20044;-67
2022/01/22 07:16:20;;;;;;;12.50;7.93;;;4.40;99.90;;;;;;5070859;28;20052;-66
2022/01/22 07:18:47;;;;;;;13.10;8.20;;;4.40;99.90;;;;;;5070992;28;20036;-66
2022/01/22 07:21:20;;;;;;;10.15;7.55;;;4.50;99.90;;;;;;5070156;28;20075;-66
2022/01/22 07:26:14;;;;;;;11.65;8.55;;;4.60;99.90;;;;;;5070875;28;20080;-66
2022/01/22 07:28:41;;;;;;;14.10;9.43;;;4.60;99.90;;;;;;5070086;28;20109;-66
2022/01/22 07:31:08;;;;;;;13.77;9.23;;;4.50;99.90;;;;;;5070776;28;20053;-66
2022/01/22 07:33:35;;;;;;;13.77;8.20;;;4.50;99.90;;;;;;5068920;28;20455;-66
2022/01/22 07:36:03;;;;;;;11.48;7.90;;;4.50;99.90;;;;;;5069959;28;20080;-66
2022/01/22 07:38:30;;;;;;;12.32;8.52;;;4.50;99.90;;;;;;5069429;28;20499;-66
2022/01/22 07:40:56;;;;;;;14.73;9.40;;;4.50;99.90;;;;;;5070996;28;20072;-66
2022/01/22 07:43:23;;;;;;;15.82;9.27;;;4.60;99.90;;;;;;5071368;28;20059;-66
2022/01/22 07:45:50;;;;;;;12.43;8.63;;;4.60;99.90;;;;;;5065192;28;20157;-66
2022/01/22 07:48:17;;;;;;;11.60;9.48;;;4.60;99.90;;;;;;5065686;28;20045;-66
2022/01/22 07:50:44;;;;;;;16.33;8.10;;;4.60;99.90;;;;;;5070296;28;20049;-67
2022/01/22 07:53:10;;;;;;;13.68;9.32;;;4.60;99.90;;;;;;5068443;28;20049;-65
2022/01/22 07:55:39;;;;;;;14.30;8.60;;;4.60;99.90;;;;;;5063760;28;20080;-66
2022/01/22 07:58:06;;;;;;;14.75;9.35;;;4.70;99.90;;;;;;5059370;28;20045;-65
2022/01/22 08:00:33;;;;;;;16.98;9.75;;;4.60;99.90;;;;;;5063567;28;20102;-65
2022/01/22 08:03:00;;;;;;;13.93;8.52;;;4.60;99.90;;;;;;5061805;28;20049;-65
2022/01/22 08:05:27;;;;;;;12.32;8.95;;;4.70;99.90;;;;;;5061728;28;20080;-66
2022/01/22 08:07:54;;;;;;;16.17;9.85;;;4.70;99.90;;;;;;5062078;28;20414;-66
2022/01/22 08:10:21;;;;;;;12.70;9.07;;;4.70;99.90;;;;;;5064697;28;20091;-66
2022/01/22 08:12:50;;;;;;;11.43;8.60;;;4.70;99.90;;;;;;5059756;28;20044;-67
2022/01/22 08:15:17;;;;;;;13.98;8.13;;;4.80;99.90;;;;;;5062364;28;20044;-66
2022/01/22 08:17:44;;;;;;;10.85;8.00;;;4.80;99.90;;;;;;5060541;28;20091;-66
2022/01/22 08:20:12;;;;;;;15.82;8.25;;;4.80;99.90;;;;;;5062831;28;20094;-66
2022/01/22 08:22:39;;;;;;;12.75;8.57;;;4.80;99.90;;;;;;5063991;28;20114;-67
2022/01/22 08:25:06;;;;;;;11.98;8.98;;;4.80;99.90;;;;;;5070475;28;20045;-65
2022/01/22 08:30:00;;;;;;;10.77;7.90;;;4.90;99.90;;;;;;5069365;28;20044;-65
2022/01/22 08:37:53;;;;;;;11.00;8.57;;;4.90;99.90;;;;;;5069730;28;20074;-65
2022/01/22 08:40:20;;;;;;;12.25;8.88;;;5.00;99.90;;;;;;5068428;28;20052;-66
2022/01/22 08:42:47;;;;;;;14.30;9.18;;;5.10;99.90;;;;;;5055060;28;20105;-65
2022/01/22 08:45:13;;;;;;;12.38;9.50;;;5.00;99.90;;;;;;5052897;28;20072;-65
2022/01/22 08:47:40;;;;;;;15.88;10.85;;;5.10;99.90;;;;;;5067112;28;20102;-67
2022/01/22 08:50:08;;;;;;;14.52;9.13;;;5.10;99.90;;;;;;5067545;28;20044;-65
2022/01/22 08:52:36;;;;;;;12.85;9.48;;;5.10;99.90;;;;;;5070081;28;20416;-65
2022/01/22 08:55:05;;;;;;;15.55;10.38;;;5.10;99.90;;;;;;5062442;28;20141;-65
2022/01/22 08:57:32;;;;;;;14.18;10.82;;;5.20;99.90;;;;;;5066685;28;20048;-65
2022/01/22 08:59:59;;;;;;;14.43;11.25;;;5.20;99.90;;;;;;5078019;28;20048;-65
2022/01/22 09:02:27;;;;;;;13.32;10.13;;;5.20;99.90;;;;;;5068121;28;20191;-65
2022/01/22 09:04:54;;;;;;;13.40;9.63;;;5.20;99.90;;;;;;5048394;28;20495;-66
2022/01/22 09:07:21;;;;;;;15.82;10.57;;;5.30;99.90;;;;;;5048155;28;20048;-66
2022/01/22 09:09:48;;;;;;;15.82;10.73;;;5.20;99.90;;;;;;5062349;28;20094;-66
2022/01/22 09:12:16;;;;;;;15.35;11.32;;;5.30;99.90;;;;;;5064125;28;20053;-65
2022/01/22 09:14:43;;;;;;;21.92;15.60;;;5.30;99.90;;;;;;5066857;28;20135;-66
2022/01/22 09:17:11;;;;;;;15.50;11.68;;;5.30;99.90;;;;;;5063712;28;20076;-66
2022/01/22 09:19:38;;;;;;;16.35;12.00;;;5.40;99.90;;;;;;5042642;28;20098;-66
2022/01/22 09:22:06;;;;;;;14.63;9.77;;;5.40;99.90;;;;;;5055550;28;20049;-66
2022/01/22 09:24:33;;;;;;;18.40;11.93;;;5.40;99.90;;;;;;5065072;28;20102;-65
2022/01/22 09:27:03;;;;;;;15.20;10.25;;;5.50;99.90;;;;;;5064410;28;20094;-66
2022/01/22 09:29:30;;;;;;;18.15;12.45;;;5.50;99.90;;;;;;5062314;28;20462;-66
2022/01/22 09:31:57;;;;;;;15.55;10.50;;;5.50;99.90;;;;;;5050790;28;20134;-66
2022/01/22 09:34:24;;;;;;;17.27;11.82;;;5.70;99.90;;;;;;5064751;28;20036;-66
2022/01/22 09:36:51;;;;;;;17.92;10.68;;;5.60;99.80;;;;;;5069196;28;20059;-66
2022/01/22 09:39:17;;;;;;;12.38;10.10;;;5.60;99.80;;;;;;5063213;28;20415;-66
2022/01/22 09:41:44;;;;;;;14.98;11.15;;;5.60;99.50;;;;;;5065111;28;20072;-66
2022/01/22 09:44:29;;;;;;;16.00;11.13;;;5.60;99.80;;;;;;5060232;28;20048;-65
2022/01/22 09:46:56;;;;;;;12.35;9.57;;;5.60;99.90;;;;;;5065588;28;20048;-66
2022/01/22 09:49:23;;;;;;;16.52;10.85;;;5.60;99.30;;;;;;5064698;28;20060;-66
2022/01/22 09:51:50;;;;;;;13.60;11.02;;;5.60;99.50;;;;;;5047885;28;20277;-65
2022/01/22 09:54:17;;;;;;;15.98;10.80;;;5.70;99.80;;;;;;5063458;28;20083;-65
2022/01/22 09:56:45;;;;;;;12.73;10.35;;;5.70;99.70;;;;;;5065334;28;20048;-66
2022/01/22 09:59:13;;;;;;;13.60;10.82;;;5.70;99.40;;;;;;5064055;28;20064;-65
2022/01/22 10:01:40;;;;;;;17.45;10.15;;;5.60;99.40;;;;;;5064344;28;20052;-65
2022/01/22 10:04:07;;;;;;;14.48;10.05;;;5.70;99.20;;;;;;5065875;28;20049;-66
2022/01/22 10:07:08;;;;;;;14.18;10.10;;;5.60;98.90;;;;;;5070250;28;20648;-66
2022/01/22 10:09:46;;;;;;;17.15;10.73;;;5.60;99.00;;;;;;5064564;28;20083;-67
2022/01/22 10:12:19;;;;;;;13.35;10.98;;;5.60;99.30;;;;;;5071114;28;20055;-66
2022/01/22 10:15:05;;;;;;;14.38;9.15;;;5.70;99.30;;;;;;5065768;28;20048;-66
2022/01/22 10:17:43;;;;;;;18.15;10.77;;;5.70;98.60;;;;;;4708050;27;10000612;-67
2022/01/22 10:20:28;;;;;;;11.98;9.57;;;5.80;99.30;;;;;;5065905;28;20052;-66
2022/01/22 10:23:07;;;;;;;13.57;10.00;;;5.80;99.10;;;;;;5057818;28;20056;-66
2022/01/22 10:25:42;;;;;;;12.85;10.80;;;5.80;99.00;;;;;;5070017;28;20457;-66
2022/01/22 10:28:12;;;;;;;14.13;11.20;;;5.90;99.00;;;;;;5070409;28;20644;-66
2022/01/22 10:30:42;;;;;;;13.73;10.55;;;5.90;99.20;;;;;;5062859;28;20095;-66
2022/01/22 10:33:21;;;;;;;12.65;10.68;;;5.90;99.30;;;;;;5051502;28;20090;-66
2022/01/22 10:35:48;;;;;;;13.43;11.32;;;5.90;99.10;;;;;;5063504;28;20487;-66
2022/01/22 10:38:18;;;;;;;15.52;11.43;;;6.00;98.70;;;;;;5065433;28;20048;-66
2022/01/22 10:40:46;;;;;;;14.82;12.15;;;6.00;98.80;;;;;;5067118;28;20056;-66
2022/01/22 10:43:25;;;;;;;15.43;12.32;;;5.80;98.20;;;;;;5049837;28;20088;-67
2022/01/22 10:46:20;;;;;;;14.70;11.70;;;5.80;98.70;;;;;;5067757;28;20559;-66
2022/01/22 10:49:07;;;;;;;12.85;11.18;;;5.80;98.70;;;;;;5047082;28;20057;-65
2022/01/22 10:51:52;;;;;;;13.75;11.60;;;5.70;98.10;;;;;;5065876;28;20053;-66
2022/01/22 10:54:27;;;;;;;17.02;11.27;;;5.80;98.70;;;;;;5066002;28;20052;-67
2022/01/22 10:57:13;;;;;;;16.38;12.52;;;5.80;98.90;;;;;;5067636;28;20568;-66
2022/01/22 10:59:53;;;;;;;21.10;13.82;;;5.90;98.20;;;;;;5066547;28;20500;-67
2022/01/22 11:02:37;;;;;;;15.80;12.10;;;6.00;98.60;;;;;;5064291;28;20056;-66
2022/01/22 11:05:05;;;;;;;21.30;15.20;;;5.90;98.50;;;;;;5065866;28;20127;-66
2022/01/22 11:07:32;;;;;;;17.83;12.65;;;5.90;98.60;;;;;;5067345;28;20048;-67
2022/01/22 11:10:05;;;;;;;17.92;13.63;;;5.90;98.50;;;;;;5067489;28;20048;-66
2022/01/22 11:12:32;;;;;;;14.35;12.18;;;5.90;98.60;;;;;;5062698;28;20048;-66
2022/01/22 11:14:59;;;;;;;21.02;13.10;;;5.90;98.70;;;;;;5067777;28;20118;-66
2022/01/22 11:17:32;;;;;;;23.58;15.05;;;6.10;98.60;;;;;;5066924;28;20507;-65
2022/01/22 11:19:59;;;;;;;16.52;12.68;;;6.10;98.60;;;;;;5050063;28;20056;-68
2022/01/22 11:22:26;;;;;;;14.00;12.18;;;6.10;98.30;;;;;;5066415;28;20086;-66
2022/01/22 11:24:55;;;;;;;23.95;12.32;;;6.00;98.00;;;;;;5066727;28;20056;-67
2022/01/22 11:27:21;;;;;;;14.13;12.63;;;6.10;98.50;;;;;;5066320;28;20552;-66
2022/01/22 11:29:51;;;;;;;14.85;11.52;;;6.00;98.50;;;;;;5067251;28;20056;-67
2022/01/22 11:32:20;;;;;;;20.77;12.88;;;6.00;98.30;;;;;;5067462;28;20053;-66
2022/01/22 11:34:49;;;;;;;14.63;12.25;;;6.00;98.50;;;;;;5065794;28;20076;-66
2022/01/22 11:37:43;;;;;;;15.77;12.27;;;6.10;98.60;;;;;;5049342;28;20066;-65
2022/01/22 11:40:15;;;;;;;19.80;11.32;;;6.10;98.00;;;;;;5066466;28;20048;-64
2022/01/22 11:43:05;;;;;;;17.67;11.90;;;6.10;98.00;;;;;;5067684;28;20122;-65
2022/01/22 11:45:40;;;;;;;16.83;11.27;;;6.10;97.70;;;;;;5065293;28;20493;-66
2022/01/22 11:48:16;;;;;;;13.43;11.23;;;6.00;97.50;;;;;;5068778;28;20151;-66
2022/01/22 11:50:48;;;;;;;13.40;11.57;;;5.90;97.80;;;;;;5069082;28;20072;-66
2022/01/22 11:53:37;;;;;;;18.00;12.30;;;6.00;98.00;;;;;;5068456;28;20048;-67
2022/01/22 11:56:10;;;;;;;13.18;11.73;;;6.00;98.20;;;;;;5056594;28;20506;-66
2022/01/22 11:59:12;;;;;;;15.13;11.50;;;6.10;97.80;;;;;;5066508;28;20049;-66
2022/01/22 12:01:51;;;;;;;20.58;10.73;;;6.10;97.80;;;;;;5025438;28;20061;-66
2022/01/22 12:04:25;;;;;;;13.93;11.55;;;6.20;98.00;;;;;;5049435;28;20060;-66
2022/01/22 12:07:02;;;;;;;16.50;11.60;;;6.30;97.90;;;;;;5050864;28;20066;-66
2022/01/22 12:09:32;;;;;;;20.80;10.63;;;6.40;97.90;;;;;;5065144;28;20045;-67
2022/01/22 12:15:35;;;;;;;19.45;10.07;;;6.30;96.80;;;;;;5068147;28;20131;-66
2022/01/22 12:18:04;;;;;;;13.35;9.02;;;6.30;97.30;;;;;;5073482;28;20101;-66
2022/01/22 12:23:15;;;;;;;12.68;8.48;;;6.20;97.60;;;;;;5069552;28;20071;-67
2022/01/22 12:25:41;;;;;;;12.05;7.90;;;6.30;97.30;;;;;;5068054;28;20057;-66
2022/01/22 12:28:12;;;;;;;12.50;7.70;;;6.30;97.20;;;;;;5069072;28;20063;-66
2022/01/22 12:30:48;;;;;;;20.35;7.10;;;6.20;96.80;;;;;;5070875;28;20041;-66
2022/01/22 12:33:30;;;;;;;15.90;6.88;;;6.20;97.50;;;;;;5067834;28;20078;-67
2022/01/22 12:35:58;;;;;;;12.30;6.55;;;6.20;96.80;;;;;;5048122;28;20056;-66
2022/01/22 12:38:44;;;;;;;8.90;6.47;;;6.30;96.60;;;;;;5054070;28;20040;-66
2022/01/22 12:44:26;;;;;;;16.60;7.15;;;6.40;97.10;;;;;;5068319;28;20074;-66
2022/01/22 12:46:58;;;;;;;8.63;6.60;;;6.30;97.10;;;;;;5069537;28;20066;-66
2022/01/22 12:49:26;;;;;;;15.45;6.10;;;6.40;96.60;;;;;;5069398;28;20049;-66
2022/01/22 12:52:00;;;;;;;24.20;9.35;;;6.40;97.00;;;;;;5070084;28;20070;-66
2022/01/22 12:54:30;;;;;;;;;;;6.40;97.20;;;;;;5069424;28;20051;-66
2022/01/22 12:57:05;;;;;;;42.60;11.95;;;6.30;96.20;;;;;;5070029;28;19927;-66
2022/01/22 12:59:34;;;;;;;14.65;6.93;;;6.40;97.30;;;;;;5068531;28;20067;-66
2022/01/22 13:02:01;;;;;;;23.27;7.75;;;6.50;97.20;;;;;;5052447;28;20091;-66
2022/01/22 13:04:28;;;;;;;10.57;7.38;;;6.50;97.00;;;;;;5069608;28;20045;-66
2022/01/22 13:06:55;;;;;;;15.95;8.10;;;6.50;97.20;;;;;;5069884;28;20082;-66
2022/01/22 13:09:21;;;;;;;16.13;7.28;;;6.50;96.70;;;;;;5069747;28;20071;-66
2022/01/22 13:11:49;;;;;;;14.23;7.20;;;6.50;97.20;;;;;;5068575;28;20052;-66
2022/01/22 13:14:18;;;;;;;11.80;6.82;;;6.50;97.00;;;;;;5052057;28;20080;-66
2022/01/22 13:16:49;;;;;;;12.45;7.85;;;6.60;96.70;;;;;;5069720;28;20087;-66
2022/01/22 13:19:16;;;;;;;25.95;9.13;;;6.50;96.60;;;;;;5068352;28;20102;-66
2022/01/22 13:21:54;;;;;;;15.85;7.72;;;6.40;96.80;;;;;;5069730;28;20041;-66
2022/01/22 13:24:25;;;;;;;14.95;6.97;;;6.40;96.50;;;;;;5071965;28;20053;-67
2022/01/22 13:27:02;;;;;;;13.65;6.63;;;6.40;96.30;;;;;;5069699;28;20059;-67
2022/01/22 13:29:38;;;;;;;14.70;6.10;;;6.50;96.50;;;;;;5070086;28;20083;-67
2022/01/22 13:32:05;;;;;;;25.17;6.97;;;6.40;96.50;;;;;;5067902;28;20137;-66
2022/01/22 13:34:43;;;;;;;16.58;8.85;;;6.40;96.90;;;;;;5069604;28;20629;-66
2022/01/22 13:48:27;;;;;;;13.63;6.53;;;6.30;96.40;;;;;;5063804;28;20057;-67
2022/01/22 13:50:54;;;;;;;14.98;6.88;;;6.40;97.00;;;;;;5056070;28;20048;-66
2022/01/22 13:53:21;;;;;;;24.67;7.63;;;6.50;97.10;;;;;;5059913;28;20085;-67
2022/01/22 13:56:02;;;;;;;10.57;7.53;;;6.60;96.50;;;;;;5075205;28;20048;-66
2022/01/22 13:58:29;;;;;;;13.57;8.00;;;6.50;96.40;;;;;;5064538;28;20044;-67
2022/01/22 14:01:04;;;;;;;13.25;8.00;;;6.40;96.60;;;;;;5076066;28;20044;-67
2022/01/22 14:04:10;;;;;;;13.55;8.68;;;6.40;96.30;;;;;;5065067;28;20052;-66
2022/01/22 14:06:38;;;;;;;19.77;10.35;;;6.30;96.50;;;;;;5074002;28;20041;-67
2022/01/22 14:09:18;;;;;;;22.88;10.18;;;6.30;96.70;;;;;;5071983;28;20443;-67
2022/01/22 14:12:08;;;;;;;12.32;9.88;;;6.30;96.80;;;;;;4715421;28;10000372;-66
2022/01/22 14:15:14;;;;;;;12.32;9.82;;;6.30;96.80;;;;;;5069327;28;20052;-66
2022/01/22 14:20:40;;;;;;;13.98;10.95;;;6.30;97.30;;;;;;5054053;28;20056;-67
2022/01/22 14:23:12;;;;;;;12.18;9.18;;;6.30;96.90;;;;;;5070946;28;20056;-65
2022/01/22 14:26:02;;;;;;;16.90;9.15;;;6.10;97.30;;;;;;5065779;28;20045;-68
2022/01/22 14:28:45;;;;;;;27.05;9.93;;;6.10;97.20;;;;;;5067479;28;20078;-66
2022/01/22 14:31:29;;;;;;;16.90;10.15;;;6.10;97.40;;;;;;5069844;28;20145;-66
2022/01/22 14:33:59;;;;;;;17.65;10.63;;;6.10;97.40;;;;;;5068252;28;20048;-67
2022/01/22 14:36:32;;;;;;;14.90;9.52;;;6.10;97.40;;;;;;5064914;28;20041;-67
2022/01/22 14:39:17;;;;;;;22.17;10.82;;;6.10;97.40;;;;;;5068118;28;20053;-66
2022/01/22 14:45:06;;;;;;;15.32;9.85;;;6.10;97.30;;;;;;5054724;28;20052;-65
2022/01/22 14:47:35;;;;;;;14.95;9.98;;;6.10;97.60;;;;;;5061800;28;20076;-66
2022/01/22 14:50:03;;;;;;;18.77;11.10;;;6.10;97.50;;;;;;5063464;28;20045;-66
2022/01/22 14:52:31;;;;;;;19.73;11.13;;;6.00;97.50;;;;;;5052053;28;20733;-67
2022/01/22 14:55:06;;;;;;;17.17;10.82;;;6.00;97.40;;;;;;5066864;28;20527;-66
2022/01/22 14:57:37;;;;;;;15.82;10.52;;;6.10;97.50;;;;;;5066607;28;20056;-67
2022/01/22 15:00:07;;;;;;;15.88;11.57;;;6.10;97.50;;;;;;5062382;28;20120;-64
2022/01/22 15:02:34;;;;;;;16.55;11.13;;;6.10;97.50;;;;;;5048440;28;20165;-66
2022/01/22 15:05:02;;;;;;;15.95;11.27;;;6.10;97.40;;;;;;5067834;28;20056;-67
2022/01/22 15:07:28;;;;;;;17.80;12.02;;;6.10;97.40;;;;;;5062890;28;20495;-66